createdAt,value
2022-11-28T00:01:20.575Z,101359.22
2022-11-28T00:03:47.873Z,101350.19
2022-11-28T00:06:14.891Z,101344.84
2022-11-28T00:08:41.749Z,101353.94
2022-11-28T00:11:10.619Z,101354.34
2022-11-28T00:13:37.488Z,101349.34
2022-11-28T00:16:06.816Z,101348.41
2022-11-28T00:18:34.000Z,101351.66
2022-11-28T00:21:02.429Z,101352.22
2022-11-28T00:23:30.375Z,101343.59
2022-11-28T00:26:20.833Z,101352.31
2022-11-28T00:28:47.938Z,101344.84
2022-11-28T00:31:20.032Z,101340.53
2022-11-28T00:33:47.660Z,101341.47
2022-11-28T00:36:14.998Z,101349.56
2022-11-28T00:38:42.493Z,101350.25
2022-11-28T00:41:14.044Z,101348.31
2022-11-28T00:43:41.968Z,101342.59
2022-11-28T00:46:09.124Z,101345.84
2022-11-28T00:48:36.129Z,101338.72
2022-11-28T00:51:12.302Z,101344.19
2022-11-28T00:53:40.617Z,101336.84
2022-11-28T00:56:08.470Z,101333.03
2022-11-28T00:58:38.004Z,101336.88
2022-11-28T01:01:20.007Z,101330.63
2022-11-28T01:03:47.538Z,101326.25
2022-11-28T01:06:21.050Z,101325.25
2022-11-28T01:08:47.561Z,101329.50
2022-11-28T01:11:14.104Z,101325.06
2022-11-28T01:13:40.979Z,101326.25
2022-11-28T01:16:08.995Z,101329.13
2022-11-28T01:18:36.038Z,101327.06
2022-11-28T01:21:03.011Z,101328.31
2022-11-28T01:23:29.587Z,101327.31
2022-11-28T01:25:56.347Z,101324.56
2022-11-28T01:28:22.882Z,101326.63
2022-11-28T01:30:49.361Z,101325.53
2022-11-28T01:33:15.913Z,101318.75
2022-11-28T01:35:42.387Z,101301.28
2022-11-28T01:38:09.043Z,101304.94
2022-11-28T01:40:35.616Z,101312.75
2022-11-28T01:43:02.195Z,101306.53
2022-11-28T01:45:32.466Z,101307.06
2022-11-28T01:48:02.904Z,101298.63
2022-11-28T01:50:33.143Z,101303.38
2022-11-28T01:53:04.846Z,101297.75
2022-11-28T01:55:36.050Z,101300.34
2022-11-28T01:58:02.688Z,101297.66
2022-11-28T02:00:29.203Z,101285.22
2022-11-28T02:03:11.656Z,101284.69
2022-11-28T02:05:39.069Z,101287.56
2022-11-28T02:08:06.561Z,101274.97
2022-11-28T02:10:57.748Z,101274.38
2022-11-28T02:13:39.770Z,101271.47
2022-11-28T02:16:35.109Z,101280.06
2022-11-28T02:19:23.030Z,101274.84
2022-11-28T02:21:52.905Z,101276.25
2022-11-28T02:24:42.671Z,101274.56
2022-11-28T02:27:32.318Z,101273.53
2022-11-28T02:30:12.873Z,101273.53
2022-11-28T02:32:54.540Z,101268.91
2022-11-28T02:35:33.413Z,101268.75
2022-11-28T02:38:14.329Z,101268.06
2022-11-28T02:40:56.283Z,101268.94
2022-11-28T02:43:25.779Z,101266.78
2022-11-28T02:46:01.321Z,101267.94
2022-11-28T02:48:53.308Z,101262.22
2022-11-28T02:51:28.950Z,101260.41
2022-11-28T02:53:57.161Z,101264.56
2022-11-28T02:56:25.170Z,101263.16
2022-11-28T02:58:52.021Z,101260.63
2022-11-28T03:01:29.506Z,101257.34
2022-11-28T03:04:24.078Z,101254.31
2022-11-28T03:07:03.995Z,101248.84
2022-11-28T03:09:49.125Z,101239.34
2022-11-28T03:12:34.372Z,101244.91
2022-11-28T03:15:03.319Z,101252.19
2022-11-28T03:17:42.241Z,101250.94
2022-11-28T03:20:29.996Z,101251.44
2022-11-28T03:23:13.983Z,101248.91
2022-11-28T03:26:08.106Z,101250.66
2022-11-28T03:28:48.000Z,101243.78
2022-11-28T03:31:19.850Z,101239.59
2022-11-28T03:33:55.257Z,101253.78
2022-11-28T03:36:27.460Z,101252.22
2022-11-28T03:39:01.953Z,101250.09
2022-11-28T03:41:35.719Z,101239.00
2022-11-28T03:44:07.061Z,101242.56
2022-11-28T03:46:39.156Z,101241.16
2022-11-28T03:49:09.542Z,101245.59
2022-11-28T03:51:47.294Z,101244.03
2022-11-28T03:54:23.094Z,101247.06
2022-11-28T03:57:03.908Z,101247.94
2022-11-28T03:59:34.761Z,101248.47
2022-11-28T04:02:14.509Z,101243.06
2022-11-28T04:05:12.099Z,101245.75
2022-11-28T04:07:56.138Z,101247.53
2022-11-28T04:10:34.775Z,101236.44
2022-11-28T04:13:04.118Z,101239.13
2022-11-28T04:15:46.337Z,101243.78
2022-11-28T04:18:26.191Z,101234.97
2022-11-28T04:21:06.034Z,101240.19
2022-11-28T04:23:34.410Z,101244.47
2022-11-28T04:26:09.850Z,101230.94
2022-11-28T04:28:38.120Z,101234.28
2022-11-28T04:31:06.953Z,101240.25
2022-11-28T04:33:37.586Z,101233.91
2022-11-28T04:36:06.746Z,101232.22
2022-11-28T04:38:34.446Z,101228.13
2022-11-28T04:41:06.787Z,101233.13
2022-11-28T04:43:40.033Z,101232.38
2022-11-28T04:46:15.981Z,101226.81
2022-11-28T04:48:42.970Z,101235.03
2022-11-28T04:51:23.125Z,101226.16
2022-11-28T04:53:59.770Z,101230.53
2022-11-28T04:56:34.056Z,101226.53
2022-11-28T04:59:01.178Z,101235.50
2022-11-28T05:01:31.519Z,101229.81
2022-11-28T05:03:58.149Z,101230.63
2022-11-28T05:06:34.038Z,101233.66
2022-11-28T05:09:00.652Z,101236.63
2022-11-28T05:11:27.731Z,101239.78
2022-11-28T05:13:55.382Z,101240.94
2022-11-28T05:16:22.841Z,101234.25
2022-11-28T05:18:50.090Z,101240.09
2022-11-28T05:21:16.678Z,101233.94
2022-11-28T05:23:44.700Z,101231.41
2022-11-28T05:26:14.067Z,101231.41
2022-11-28T05:28:44.753Z,101239.41
2022-11-28T05:31:12.551Z,101229.31
2022-11-28T05:33:39.491Z,101237.13
2022-11-28T05:36:12.906Z,101234.88
2022-11-28T05:38:41.226Z,101240.53
2022-11-28T05:41:08.687Z,101235.56
2022-11-28T05:43:35.577Z,101245.00
2022-11-28T05:46:05.309Z,101244.13
2022-11-28T05:48:31.818Z,101237.78
2022-11-28T05:50:58.417Z,101235.38
2022-11-28T05:53:25.996Z,101239.50
2022-11-28T05:55:52.599Z,101232.84
2022-11-28T05:58:19.102Z,101232.72
2022-11-28T06:00:45.796Z,101232.81
2022-11-28T06:03:12.354Z,101224.88
2022-11-28T06:05:43.256Z,101232.25
2022-11-28T06:08:13.533Z,101229.41
2022-11-28T06:10:40.438Z,101232.88
2022-11-28T06:13:06.988Z,101228.34
2022-11-28T06:15:37.492Z,101220.34
2022-11-28T06:18:05.074Z,101225.03
2022-11-28T06:20:31.583Z,101228.34
2022-11-28T06:22:58.108Z,101229.59
2022-11-28T06:25:24.674Z,101227.59
2022-11-28T06:27:51.190Z,101227.59
2022-11-28T06:30:17.780Z,101222.63
2022-11-28T06:32:44.312Z,101229.75
2022-11-28T06:35:10.851Z,101229.91
2022-11-28T06:37:37.523Z,101226.06
2022-11-28T06:40:05.059Z,101230.75
2022-11-28T06:42:31.607Z,101235.44
2022-11-28T06:44:58.085Z,101234.28
2022-11-28T06:47:24.590Z,101222.50
2022-11-28T06:49:51.185Z,101231.75
2022-11-28T06:52:17.689Z,101235.72
2022-11-28T06:54:44.747Z,101235.44
2022-11-28T06:57:11.516Z,101238.31
2022-11-28T06:59:38.155Z,101242.44
2022-11-28T07:02:07.771Z,101232.19
2022-11-28T07:04:35.672Z,101238.16
2022-11-28T07:07:02.174Z,101244.69
2022-11-28T07:09:29.163Z,101249.09
2022-11-28T07:11:55.699Z,101247.94
2022-11-28T07:14:22.242Z,101254.34
2022-11-28T07:16:49.385Z,101251.91
2022-11-28T07:19:16.205Z,101240.25
2022-11-28T07:21:42.791Z,101243.97
2022-11-28T07:24:09.377Z,101242.69
2022-11-28T07:26:38.072Z,101253.34
2022-11-28T07:29:07.051Z,101249.78
2022-11-28T07:31:34.008Z,101247.81
2022-11-28T07:34:03.558Z,101240.03
2022-11-28T07:36:30.672Z,101243.41
2022-11-28T07:38:59.905Z,101250.09
2022-11-28T07:41:30.592Z,101232.78
2022-11-28T07:43:59.595Z,101240.13
2022-11-28T07:46:27.795Z,101244.13
2022-11-28T07:48:54.793Z,101244.41
2022-11-28T07:51:24.278Z,101242.28
2022-11-28T07:53:51.571Z,101235.06
2022-11-28T07:56:21.601Z,101240.72
2022-11-28T07:58:49.287Z,101232.91
2022-11-28T08:01:18.348Z,101230.38
2022-11-28T08:03:45.579Z,101226.25
2022-11-28T08:06:13.144Z,101238.03
2022-11-28T08:08:41.159Z,101228.91
2022-11-28T08:11:10.229Z,101228.06
2022-11-28T08:13:38.809Z,101229.34
2022-11-28T08:16:11.686Z,101229.03
2022-11-28T08:18:38.407Z,101233.59
2022-11-28T08:21:13.363Z,101233.47
2022-11-28T08:23:40.670Z,101229.91
2022-11-28T08:26:10.237Z,101239.13
2022-11-28T08:28:40.286Z,101237.41
2022-11-28T08:31:13.705Z,101241.47
2022-11-28T08:33:41.157Z,101230.28
2022-11-28T08:36:09.509Z,101230.97
2022-11-28T08:38:37.361Z,101233.66
2022-11-28T08:41:13.022Z,101230.88
2022-11-28T08:43:40.888Z,101236.25
2022-11-28T08:46:17.045Z,101232.09
2022-11-28T08:48:43.968Z,101233.66
2022-11-28T08:51:16.127Z,101215.38
2022-11-28T08:53:48.563Z,101232.78
2022-11-28T08:56:15.807Z,101232.22
2022-11-28T08:58:42.584Z,101227.41
2022-11-28T09:01:24.096Z,101229.50
2022-11-28T09:03:52.124Z,101234.91
2022-11-28T09:06:21.068Z,101230.78
2022-11-28T09:08:49.276Z,101221.41
2022-11-28T09:11:19.892Z,101229.50
2022-11-28T09:13:46.505Z,101220.78
2022-11-28T09:16:15.331Z,101216.41
2022-11-28T09:18:42.215Z,101213.00
2022-11-28T09:21:12.202Z,101212.25
2022-11-28T09:23:41.179Z,101204.03
2022-11-28T09:26:12.812Z,101204.03
2022-11-28T09:28:39.302Z,101211.53
2022-11-28T09:31:07.387Z,101199.13
2022-11-28T09:33:34.858Z,101203.06
2022-11-28T09:36:06.425Z,101202.28
2022-11-28T09:38:33.023Z,101193.38
2022-11-28T09:41:01.976Z,101196.47
2022-11-28T09:43:45.478Z,101190.50
2022-11-28T09:46:20.270Z,101197.25
2022-11-28T09:48:51.234Z,101191.19
2022-11-28T09:51:26.809Z,101188.88
2022-11-28T09:54:17.966Z,101188.47
2022-11-28T09:56:48.398Z,101183.56
2022-11-28T09:59:24.827Z,101179.75
2022-11-28T10:02:00.488Z,101181.00
2022-11-28T10:04:42.289Z,101184.78
2022-11-28T10:07:23.990Z,101180.38
2022-11-28T10:10:15.421Z,101177.84
2022-11-28T10:12:58.453Z,101176.69
2022-11-28T10:15:40.178Z,101171.56
2022-11-28T10:18:34.874Z,101163.06
2022-11-28T10:21:04.631Z,101172.44
2022-11-28T10:23:42.438Z,101159.84
2022-11-28T10:26:27.058Z,101159.56
2022-11-28T10:28:57.566Z,101168.13
2022-11-28T10:31:44.220Z,101165.72
2022-11-28T10:34:19.718Z,101161.22
2022-11-28T10:36:49.220Z,101160.53
2022-11-28T10:39:15.714Z,101154.16
2022-11-28T10:42:12.173Z,101156.69
2022-11-28T10:44:54.261Z,101154.91
2022-11-28T10:47:55.110Z,101142.00
2022-11-28T10:50:45.341Z,101141.56
2022-11-28T10:53:18.585Z,101149.50
2022-11-28T10:56:28.212Z,101152.13
2022-11-28T10:59:07.347Z,101148.88
2022-11-28T11:01:39.872Z,101146.34
2022-11-28T11:04:15.968Z,101140.53
2022-11-28T11:07:07.158Z,101134.66
2022-11-28T11:09:29.154Z,101136.59
2022-11-28T11:12:01.103Z,101140.06
2022-11-28T11:14:37.674Z,101140.75
2022-11-28T11:17:04.366Z,101137.00
2022-11-28T11:19:34.606Z,101136.78
2022-11-28T11:22:23.161Z,101138.00
2022-11-28T11:25:23.415Z,101139.16
2022-11-28T11:27:53.223Z,101143.63
2022-11-28T11:30:32.199Z,101145.34
2022-11-28T11:33:01.810Z,101146.72
2022-11-28T11:35:31.659Z,101151.50
2022-11-28T11:38:27.802Z,101145.00
2022-11-28T11:40:54.385Z,101140.69
2022-11-28T11:43:36.235Z,101149.19
2022-11-28T11:46:07.413Z,101141.47
2022-11-28T11:48:59.272Z,101152.34
2022-11-28T11:51:31.024Z,101145.34
2022-11-28T11:54:17.440Z,101151.91
2022-11-28T11:56:47.270Z,101147.66
2022-11-28T11:59:39.601Z,101148.34
2022-11-28T12:02:25.988Z,101160.75
2022-11-28T12:05:02.624Z,101151.50
2022-11-28T12:07:43.204Z,101139.53
2022-11-28T12:10:15.229Z,101147.41
2022-11-28T12:12:42.387Z,101148.88
2022-11-28T12:15:17.438Z,101140.06
2022-11-28T12:18:01.938Z,101145.94
2022-11-28T12:20:34.165Z,101142.47
2022-11-28T12:23:20.146Z,101142.25
2022-11-28T12:25:58.811Z,101142.53
2022-11-28T12:28:49.687Z,101137.94
2022-11-28T12:32:02.732Z,101145.78
2022-11-28T12:34:52.348Z,101144.03
2022-11-28T12:37:55.236Z,101137.31
2022-11-28T12:40:38.191Z,101143.41
2022-11-28T12:43:30.511Z,101149.03
2022-11-28T12:46:08.892Z,101145.09
2022-11-28T12:48:53.254Z,101133.78
2022-11-28T12:51:36.234Z,101133.66
2022-11-28T12:54:18.058Z,101144.25
2022-11-28T12:57:00.600Z,101147.53
2022-11-28T12:59:56.205Z,101141.66
2022-11-28T13:02:47.676Z,101140.28
2022-11-28T13:05:42.209Z,101144.00
2022-11-28T13:08:35.390Z,101131.09
2022-11-28T13:11:25.129Z,101127.41
2022-11-28T13:14:08.356Z,101138.44
2022-11-28T13:16:52.526Z,101132.72
2022-11-28T13:19:52.144Z,101142.66
2022-11-28T13:23:02.116Z,101132.84
2022-11-28T13:25:47.875Z,101135.94
2022-11-28T13:28:23.823Z,101133.41
2022-11-28T13:30:59.305Z,101136.81
2022-11-28T13:33:48.808Z,101130.84
2022-11-28T13:39:29.918Z,101134.09
2022-11-28T13:42:52.322Z,101130.25
2022-11-28T13:45:25.171Z,101132.03
2022-11-28T13:47:55.710Z,101124.28
2022-11-28T13:50:39.648Z,101130.25
2022-11-28T13:53:06.112Z,101136.34
2022-11-28T13:55:44.915Z,101126.41
2022-11-28T13:58:31.628Z,101126.00
2022-11-28T14:01:09.759Z,101127.69
2022-11-28T14:03:48.018Z,101134.88
2022-11-28T14:06:21.160Z,101127.09
2022-11-28T14:09:02.547Z,101128.31
2022-11-28T14:11:50.249Z,101118.75
2022-11-28T14:14:43.133Z,101121.06
2022-11-28T14:17:21.475Z,101120.91
2022-11-28T14:20:09.825Z,101117.22
2022-11-28T14:22:45.632Z,101120.91
2022-11-28T14:25:28.688Z,101114.97
2022-11-28T14:27:59.310Z,101117.78
2022-11-28T14:30:39.064Z,101120.38
2022-11-28T14:33:15.811Z,101113.94
2022-11-28T14:35:54.324Z,101107.09
2022-11-28T14:38:30.226Z,101108.41
2022-11-28T14:40:56.916Z,101114.72
2022-11-28T14:43:23.535Z,101110.53
2022-11-28T14:45:51.662Z,101120.66
2022-11-28T14:48:36.961Z,101105.31
2022-11-28T14:51:03.533Z,101107.72
2022-11-28T14:53:41.919Z,101105.94
2022-11-28T14:56:23.833Z,101116.84
2022-11-28T14:58:52.802Z,101105.69
2022-11-28T15:01:36.776Z,101104.50
2022-11-28T15:04:39.262Z,101105.81
2022-11-28T15:07:22.084Z,101105.81
2022-11-28T15:10:07.251Z,101106.50
2022-11-28T15:13:07.131Z,101099.09
2022-11-28T15:15:33.975Z,101110.63
2022-11-28T15:18:03.022Z,101111.91
2022-11-28T15:20:42.598Z,101104.50
2022-11-28T15:23:41.075Z,101116.63
2022-11-28T15:26:19.296Z,101121.88
2022-11-28T15:28:45.822Z,101123.47
2022-11-28T15:31:22.033Z,101114.53
2022-11-28T15:33:50.327Z,101115.25
2022-11-28T15:36:26.165Z,101115.13
2022-11-28T15:38:54.332Z,101112.97
2022-11-28T15:41:26.189Z,101122.22
2022-11-28T15:43:54.778Z,101108.34
2022-11-28T15:46:30.589Z,101120.53
2022-11-28T15:48:57.312Z,101116.28
2022-11-28T15:51:31.795Z,101114.03
2022-11-28T15:53:59.457Z,101109.88
2022-11-28T15:56:26.530Z,101113.94
2022-11-28T15:58:53.951Z,101112.13
2022-11-28T16:01:28.065Z,101113.78
2022-11-28T16:04:05.526Z,101109.41
2022-11-28T16:06:38.489Z,101110.63
2022-11-28T16:09:26.119Z,101124.25
2022-11-28T16:11:55.098Z,101114.38
2022-11-28T16:14:29.207Z,101118.41
2022-11-28T16:17:00.732Z,101109.25
2022-11-28T16:19:37.275Z,101115.53
2022-11-28T16:22:09.400Z,101116.25
2022-11-28T16:24:50.409Z,101108.47
2022-11-28T16:27:36.871Z,101116.97
2022-11-28T16:30:25.914Z,101111.31
2022-11-28T16:32:55.452Z,101111.88
2022-11-28T16:35:48.129Z,101106.47
2022-11-28T16:38:18.220Z,101119.13
2022-11-28T16:40:44.935Z,101116.69
2022-11-28T16:43:25.171Z,101114.41
2022-11-28T16:46:02.812Z,101115.72
2022-11-28T16:48:33.878Z,101119.81
2022-11-28T16:51:12.925Z,101115.47
2022-11-28T16:53:46.444Z,101110.31
2022-11-28T16:56:45.523Z,101112.00
2022-11-28T16:59:16.815Z,101117.13
2022-11-28T17:01:45.896Z,101124.09
2022-11-28T17:04:24.527Z,101126.19
2022-11-28T17:06:53.033Z,101123.94
2022-11-28T17:09:20.309Z,101116.56
2022-11-28T17:11:55.726Z,101120.97
2022-11-28T17:14:22.408Z,101115.28
2022-11-28T17:16:49.285Z,101124.66
2022-11-28T17:19:16.077Z,101119.28
2022-11-28T17:21:46.138Z,101126.25
2022-11-28T17:24:24.779Z,101116.59
2022-11-28T17:26:53.237Z,101134.63
2022-11-28T17:29:20.653Z,101128.00
2022-11-28T17:31:47.699Z,101132.38
2022-11-28T17:34:20.477Z,101130.81
2022-11-28T17:36:47.898Z,101126.53
2022-11-28T17:39:14.832Z,101124.97
2022-11-28T17:41:41.884Z,101127.53
2022-11-28T17:44:22.659Z,101133.06
2022-11-28T17:46:51.160Z,101126.81
2022-11-28T17:49:18.164Z,101137.75
2022-11-28T17:51:44.879Z,101124.88
2022-11-28T17:54:16.359Z,101133.03
2022-11-28T17:56:44.244Z,101133.13
2022-11-28T17:59:15.010Z,101132.88
2022-11-28T18:01:42.023Z,101133.47
2022-11-28T18:04:08.804Z,101130.34
2022-11-28T18:06:35.353Z,101139.75
2022-11-28T18:09:08.622Z,101126.97
2022-11-28T18:11:39.298Z,101133.38
2022-11-28T18:14:06.169Z,101137.75
2022-11-28T18:16:32.988Z,101128.69
2022-11-28T18:18:59.883Z,101122.28
2022-11-28T18:21:26.892Z,101128.69
2022-11-28T18:23:54.616Z,101136.06
2022-11-28T18:26:23.987Z,101132.09
2022-11-28T18:28:51.262Z,101126.28
2022-11-28T18:31:20.512Z,101125.84
2022-11-28T18:33:47.372Z,101129.25
2022-11-28T18:36:16.772Z,101149.44
2022-11-28T18:38:45.239Z,101142.94
2022-11-28T18:41:13.785Z,101149.16
2022-11-28T18:43:41.106Z,101140.38
2022-11-28T18:46:10.377Z,101131.03
2022-11-28T18:48:39.044Z,101136.09
2022-11-28T18:51:23.113Z,101138.22
2022-11-28T18:53:51.254Z,101135.84
2022-11-28T18:56:18.333Z,101140.09
2022-11-28T18:58:48.768Z,101150.78
2022-11-28T19:01:29.351Z,101140.25
2022-11-28T19:03:59.444Z,101146.09
2022-11-28T19:06:27.926Z,101145.09
2022-11-28T19:08:57.252Z,101151.91
2022-11-28T19:11:24.371Z,101156.03
2022-11-28T19:13:52.856Z,101140.13
2022-11-28T19:16:22.216Z,101155.47
2022-11-28T19:18:49.148Z,101145.66
2022-11-28T19:21:18.479Z,101156.31
2022-11-28T19:23:49.015Z,101144.41
2022-11-28T19:26:18.294Z,101151.00
2022-11-28T19:28:44.903Z,101158.44
2022-11-28T19:31:16.433Z,101164.13
2022-11-28T19:33:43.934Z,101152.91
2022-11-28T19:36:12.766Z,101137.44
2022-11-28T19:38:39.836Z,101143.97
2022-11-28T19:41:11.802Z,101139.59
2022-11-28T19:43:39.052Z,101156.03
2022-11-28T19:46:06.171Z,101146.09
2022-11-28T19:48:34.638Z,101158.44
2022-11-28T19:51:01.749Z,101159.16
2022-11-28T19:53:32.430Z,101151.34
2022-11-28T19:56:07.122Z,101167.66
2022-11-28T19:58:37.019Z,101150.34
2022-11-28T20:01:14.803Z,101144.97
2022-11-28T20:03:42.387Z,101161.28
2022-11-28T20:06:13.196Z,101151.06
2022-11-28T20:08:40.299Z,101146.81
2022-11-28T20:11:12.400Z,101152.06
2022-11-28T20:13:39.898Z,101151.91
2022-11-28T20:16:08.813Z,101159.72
2022-11-28T20:18:40.647Z,101150.25
2022-11-28T20:21:15.086Z,101157.59
2022-11-28T20:23:52.355Z,101148.25
2022-11-28T20:26:21.791Z,101172.06
2022-11-28T20:28:48.711Z,101151.91
2022-11-28T20:31:23.893Z,101151.34
2022-11-28T20:33:51.645Z,101163.81
2022-11-28T20:36:20.752Z,101187.06
2022-11-28T20:38:47.516Z,101162.94
2022-11-28T20:41:15.622Z,101159.97
2022-11-28T20:43:42.664Z,101162.53
2022-11-28T20:46:30.708Z,101162.81
2022-11-28T20:48:59.668Z,101161.97
2022-11-28T20:51:29.113Z,101153.88
2022-11-28T20:53:57.357Z,101165.38
2022-11-28T20:56:26.802Z,101171.88
2022-11-28T20:58:53.339Z,101160.13
2022-11-28T21:01:24.502Z,101168.63
2022-11-28T21:03:52.050Z,101164.50
2022-11-28T21:06:19.398Z,101176.81
2022-11-28T21:08:46.320Z,101163.34
2022-11-28T21:11:36.584Z,101153.75
2022-11-28T21:14:04.732Z,101159.69
2022-11-28T21:16:34.749Z,101174.13
2022-11-28T21:19:08.985Z,101166.50
2022-11-28T21:21:39.027Z,101168.59
2022-11-28T21:24:08.417Z,101159.41
2022-11-28T21:26:40.872Z,101154.88
2022-11-28T21:29:12.010Z,101154.44
2022-11-28T21:31:43.403Z,101165.63
2022-11-28T21:34:17.715Z,101174.13
2022-11-28T21:36:45.936Z,101167.91
2022-11-28T21:39:15.132Z,101193.13
2022-11-28T21:41:42.020Z,101176.09
2022-11-28T21:44:11.414Z,101184.34
2022-11-28T21:46:38.100Z,101163.09
2022-11-28T21:49:04.765Z,101173.00
2022-11-28T21:51:31.370Z,101171.59
2022-11-28T21:53:58.189Z,101152.72
2022-11-28T21:56:25.427Z,101151.75
2022-11-28T21:58:52.202Z,101150.34
2022-11-28T22:01:21.824Z,101147.78
2022-11-28T22:03:48.946Z,101154.00
2022-11-28T22:06:26.202Z,101156.00
2022-11-28T22:08:54.065Z,101153.03
2022-11-28T22:11:21.559Z,101154.72
2022-11-28T22:13:49.177Z,101151.31
2022-11-28T22:16:27.132Z,101146.38
2022-11-28T22:18:57.609Z,101139.69
2022-11-28T22:24:11.044Z,101138.84
2022-11-28T22:26:38.084Z,101145.78
2022-11-28T22:29:04.843Z,101141.53
2022-11-28T22:31:31.463Z,101155.28
2022-11-28T22:33:58.203Z,101137.00
2022-11-28T22:36:24.943Z,101154.00
2022-11-28T22:38:55.545Z,101134.16
2022-11-28T22:41:28.284Z,101135.16
2022-11-28T22:43:57.591Z,101137.16
2022-11-28T22:46:24.235Z,101139.25
2022-11-28T22:48:51.976Z,101152.44
2022-11-28T22:51:21.961Z,101146.19
2022-11-28T22:53:53.438Z,101140.69
2022-11-28T22:56:20.037Z,101148.34
2022-11-28T22:58:46.530Z,101138.84
2022-11-28T23:01:19.130Z,101154.97
2022-11-28T23:03:46.434Z,101149.47
2022-11-28T23:06:15.579Z,101136.28
2022-11-28T23:08:42.509Z,101147.91
2022-11-28T23:11:12.616Z,101137.72
2022-11-28T23:13:39.816Z,101135.88
2022-11-28T23:16:09.491Z,101132.91
2022-11-28T23:18:36.048Z,101133.34
2022-11-28T23:21:02.542Z,101139.84
2022-11-28T23:23:31.875Z,101142.25
2022-11-28T23:26:05.282Z,101149.75
2022-11-28T23:28:32.891Z,101148.34
2022-11-28T23:31:20.629Z,101138.00
2022-11-28T23:33:47.896Z,101138.13
2022-11-28T23:36:19.727Z,101141.81
2022-11-28T23:38:51.407Z,101140.81
2022-11-28T23:41:18.464Z,101139.69
2022-11-28T23:43:45.757Z,101131.06
2022-11-28T23:46:13.911Z,101145.66
2022-11-28T23:48:40.801Z,101138.97
2022-11-28T23:51:07.775Z,101142.13
2022-11-28T23:53:35.619Z,101137.88
2022-11-28T23:56:07.685Z,101136.59
2022-11-28T23:58:35.110Z,101138.31
